Mansfield Lahm Regional Airport Mansfield US
ICAO: KMFD
IATA: MFD
Category: Medium
Scheduled Services: No

Elevation: 1297 ft
TransAlt. 18000 ft.

Airport Communications:
APP/DEP:124.2
ATIS:125.3
CTAF:119.8
GND:121.8
HERC COMD POST:29.75
CLEVELAND RDO:122.6
TWR:119.8
UNICOM:122.95

KMFD Zoom In..

Runways:

(A) RW 05 length 6800 ft width 150 ft
---- / hdg 53

(B) RW 14 length 9001 ft width 150 ft
---- / hdg 143

(C) RW 23 length 6800 ft width 150 ft
---- / hdg 233

(D) RW 32 length 9001 ft width 150 ft
ILS 110.50 / hdg 323

Location; KMFD
Day. 17 / Time. 06.52 Zulu
* Altimeter: 29.91
* Temperature: 23° c. 73.4°f.
* Wind from: 250° Speed 06 kn.
Dewpoint: 22° c.
Visibility: 10 Statute Miles.
Clouds: Clear (automated report).

KMFD 170652Z AUTO 25006KT 10SM CLR 23/22 A2991 RMK AO2 SLP117 T02280217


Wind From 250°
Speed 06 kn.

 
 
jpsmedia.com for Web Design worldairports.se 2018   terms of use